Culdrose, United Kingdom
Current Conditions -  °F | °C
As of 6:50 PM on Monday 22 Dec 2014 (Local Time) from EGDR Reporting Station
Haze Haze  
Wind Chill: 12°   Ceiling: 3000
Heat Index: 12°   Visibility: 6mi
Dew Point:   Wind: 16mph
Humidity: 72%   Direction: 250°WSW
Pressure: 30.18"   Gusts: 31mph
Location:  50.08°N, 5.25°W
Report Text: EGDR 221850Z 25014G27KT 9999 HZ OVC030 12/07 Q1022 BLU
Loading
Personal Weather Stations






























Interactive Weather Map New forecast layout! Learn more

10-Day Weather Forecast

Advertisements
Track Severe Weather on mobile